sensor_id;sensor_type;location;lat;lon;timestamp;temperature;humidity
420;DHT22;42600;54.408;13.016;2023-06-22T00:02:15;16.70;92.70
420;DHT22;42600;54.408;13.016;2023-06-22T00:04:42;16.80;92.70
420;DHT22;42600;54.408;13.016;2023-06-22T00:07:08;16.80;92.70
420;DHT22;42600;54.408;13.016;2023-06-22T00:09:35;16.80;92.70
420;DHT22;42600;54.408;13.016;2023-06-22T00:12:02;16.80;92.70
420;DHT22;42600;54.408;13.016;2023-06-22T00:14:29;16.80;92.70
420;DHT22;42600;54.408;13.016;2023-06-22T00:16:57;16.80;92.70
420;DHT22;42600;54.408;13.016;2023-06-22T00:19:24;16.90;92.70
420;DHT22;42600;54.408;13.016;2023-06-22T00:21:51;16.90;92.70
420;DHT22;42600;54.408;13.016;2023-06-22T00:24:18;17.00;92.70
420;DHT22;42600;54.408;13.016;2023-06-22T00:26:45;17.00;92.70
420;DHT22;42600;54.408;13.016;2023-06-22T00:29:11;17.10;92.70
420;DHT22;42600;54.408;13.016;2023-06-22T00:31:38;17.10;92.70
420;DHT22;42600;54.408;13.016;2023-06-22T00:34:06;17.00;92.70
420;DHT22;42600;54.408;13.016;2023-06-22T00:36:34;16.70;92.70
420;DHT22;42600;54.408;13.016;2023-06-22T00:39:00;16.60;92.70
420;DHT22;42600;54.408;13.016;2023-06-22T00:41:28;16.50;92.70
420;DHT22;42600;54.408;13.016;2023-06-22T00:43:55;16.50;92.70
420;DHT22;42600;54.408;13.016;2023-06-22T00:46:22;16.50;92.70
420;DHT22;42600;54.408;13.016;2023-06-22T00:48:50;16.50;92.70
420;DHT22;42600;54.408;13.016;2023-06-22T00:51:18;16.60;92.70
420;DHT22;42600;54.408;13.016;2023-06-22T00:53:49;16.60;92.70
420;DHT22;42600;54.408;13.016;2023-06-22T00:56:17;16.70;92.70
420;DHT22;42600;54.408;13.016;2023-06-22T00:58:50;16.80;92.70
420;DHT22;42600;54.408;13.016;2023-06-22T01:01:18;16.70;92.70
420;DHT22;42600;54.408;13.016;2023-06-22T01:03:49;16.60;92.70
420;DHT22;42600;54.408;13.016;2023-06-22T01:06:21;16.60;92.70
420;DHT22;42600;54.408;13.016;2023-06-22T01:09:04;16.50;92.70
420;DHT22;42600;54.408;13.016;2023-06-22T01:11:37;16.60;92.70
420;DHT22;42600;54.408;13.016;2023-06-22T01:14:08;16.60;92.70
420;DHT22;42600;54.408;13.016;2023-06-22T01:16:36;16.50;92.70
420;DHT22;42600;54.408;13.016;2023-06-22T01:19:20;16.50;92.70
420;DHT22;42600;54.408;13.016;2023-06-22T01:21:55;16.50;92.70
420;DHT22;42600;54.408;13.016;2023-06-22T01:24:24;16.50;92.70
420;DHT22;42600;54.408;13.016;2023-06-22T01:26:59;16.40;92.70
420;DHT22;42600;54.408;13.016;2023-06-22T01:29:29;16.30;92.70
420;DHT22;42600;54.408;13.016;2023-06-22T01:31:57;16.30;92.70
420;DHT22;42600;54.408;13.016;2023-06-22T01:34:25;16.30;92.70
420;DHT22;42600;54.408;13.016;2023-06-22T01:36:53;16.20;92.70
420;DHT22;42600;54.408;13.016;2023-06-22T01:39:21;16.10;92.70
420;DHT22;42600;54.408;13.016;2023-06-22T01:41:48;16.00;92.70
420;DHT22;42600;54.408;13.016;2023-06-22T01:44:15;15.90;92.70
420;DHT22;42600;54.408;13.016;2023-06-22T01:46:44;15.90;92.70
420;DHT22;42600;54.408;13.016;2023-06-22T01:49:11;15.80;92.70
420;DHT22;42600;54.408;13.016;2023-06-22T01:51:38;15.70;92.70
420;DHT22;42600;54.408;13.016;2023-06-22T01:54:06;15.70;92.70
420;DHT22;42600;54.408;13.016;2023-06-22T01:56:33;15.60;92.70
420;DHT22;42600;54.408;13.016;2023-06-22T01:59:04;15.50;92.70
420;DHT22;42600;54.408;13.016;2023-06-22T02:01:35;15.30;92.70
420;DHT22;42600;54.408;13.016;2023-06-22T02:04:12;15.10;92.70
420;DHT22;42600;54.408;13.016;2023-06-22T02:06:42;15.00;92.70
420;DHT22;42600;54.408;13.016;2023-06-22T02:09:14;14.90;92.70
420;DHT22;42600;54.408;13.016;2023-06-22T02:11:44;14.80;92.70
420;DHT22;42600;54.408;13.016;2023-06-22T02:14:12;14.80;92.70
420;DHT22;42600;54.408;13.016;2023-06-22T02:16:39;14.80;92.70
420;DHT22;42600;54.408;13.016;2023-06-22T02:19:08;14.90;92.70
420;DHT22;42600;54.408;13.016;2023-06-22T02:21:34;15.00;92.70
420;DHT22;42600;54.408;13.016;2023-06-22T02:24:01;15.00;92.70
420;DHT22;42600;54.408;13.016;2023-06-22T02:26:28;15.10;92.70
420;DHT22;42600;54.408;13.016;2023-06-22T02:28:54;15.10;92.70
420;DHT22;42600;54.408;13.016;2023-06-22T02:31:21;15.30;92.70
420;DHT22;42600;54.408;13.016;2023-06-22T02:33:47;15.40;92.70
420;DHT22;42600;54.408;13.016;2023-06-22T02:36:16;15.60;92.70
420;DHT22;42600;54.408;13.016;2023-06-22T02:38:47;15.70;92.70
420;DHT22;42600;54.408;13.016;2023-06-22T02:41:14;15.80;92.70
420;DHT22;42600;54.408;13.016;2023-06-22T02:43:44;15.70;92.70
420;DHT22;42600;54.408;13.016;2023-06-22T02:46:11;15.70;92.70
420;DHT22;42600;54.408;13.016;2023-06-22T02:48:38;15.70;92.70
420;DHT22;42600;54.408;13.016;2023-06-22T02:51:05;15.80;92.70
420;DHT22;42600;54.408;13.016;2023-06-22T02:53:33;15.90;92.70
420;DHT22;42600;54.408;13.016;2023-06-22T02:56:01;15.90;92.70
420;DHT22;42600;54.408;13.016;2023-06-22T02:58:28;15.80;92.70
420;DHT22;42600;54.408;13.016;2023-06-22T03:00:55;15.80;92.70
420;DHT22;42600;54.408;13.016;2023-06-22T03:03:21;15.80;92.70
420;DHT22;42600;54.408;13.016;2023-06-22T03:05:48;15.80;92.70
420;DHT22;42600;54.408;13.016;2023-06-22T03:08:14;15.70;92.70
420;DHT22;42600;54.408;13.016;2023-06-22T03:10:42;15.60;92.70
420;DHT22;42600;54.408;13.016;2023-06-22T03:13:09;15.60;92.70
420;DHT22;42600;54.408;13.016;2023-06-22T03:15:35;15.60;92.70
420;DHT22;42600;54.408;13.016;2023-06-22T03:18:02;15.60;92.70
420;DHT22;42600;54.408;13.016;2023-06-22T03:20:28;15.70;92.70
420;DHT22;42600;54.408;13.016;2023-06-22T03:22:58;15.80;92.70
420;DHT22;42600;54.408;13.016;2023-06-22T03:25:25;15.80;92.70
420;DHT22;42600;54.408;13.016;2023-06-22T03:27:53;15.80;92.70
420;DHT22;42600;54.408;13.016;2023-06-22T03:30:19;15.90;92.70
420;DHT22;42600;54.408;13.016;2023-06-22T03:32:46;16.00;92.70
420;DHT22;42600;54.408;13.016;2023-06-22T03:35:13;16.10;92.70
420;DHT22;42600;54.408;13.016;2023-06-22T03:37:39;16.20;92.70
420;DHT22;42600;54.408;13.016;2023-06-22T03:40:07;16.20;92.70
420;DHT22;42600;54.408;13.016;2023-06-22T03:42:34;16.20;92.70
420;DHT22;42600;54.408;13.016;2023-06-22T03:45:02;16.20;92.70
420;DHT22;42600;54.408;13.016;2023-06-22T03:47:29;16.30;92.70
420;DHT22;42600;54.408;13.016;2023-06-22T03:49:56;16.30;92.70
420;DHT22;42600;54.408;13.016;2023-06-22T03:52:22;16.30;92.70
420;DHT22;42600;54.408;13.016;2023-06-22T03:54:50;16.40;92.70
420;DHT22;42600;54.408;13.016;2023-06-22T03:57:17;16.50;92.70
420;DHT22;42600;54.408;13.016;2023-06-22T03:59:43;16.50;92.70
420;DHT22;42600;54.408;13.016;2023-06-22T04:02:11;16.50;92.70
420;DHT22;42600;54.408;13.016;2023-06-22T04:04:38;16.50;92.70
420;DHT22;42600;54.408;13.016;2023-06-22T04:07:05;16.50;92.70
420;DHT22;42600;54.408;13.016;2023-06-22T04:09:32;16.50;92.70
420;DHT22;42600;54.408;13.016;2023-06-22T04:11:58;16.60;92.70
420;DHT22;42600;54.408;13.016;2023-06-22T04:14:25;16.70;92.70
420;DHT22;42600;54.408;13.016;2023-06-22T04:16:51;16.70;92.70
420;DHT22;42600;54.408;13.016;2023-06-22T04:19:19;16.80;92.70
420;DHT22;42600;54.408;13.016;2023-06-22T04:21:46;16.80;92.70
420;DHT22;42600;54.408;13.016;2023-06-22T04:24:13;16.80;92.70
420;DHT22;42600;54.408;13.016;2023-06-22T04:26:40;16.80;92.70
420;DHT22;42600;54.408;13.016;2023-06-22T04:29:07;16.80;92.70
420;DHT22;42600;54.408;13.016;2023-06-22T04:31:35;16.80;92.70
420;DHT22;42600;54.408;13.016;2023-06-22T04:34:03;16.90;92.70
420;DHT22;42600;54.408;13.016;2023-06-22T04:36:34;16.90;92.70
420;DHT22;42600;54.408;13.016;2023-06-22T04:39:06;17.00;92.70
420;DHT22;42600;54.408;13.016;2023-06-22T04:41:35;17.00;92.70
420;DHT22;42600;54.408;13.016;2023-06-22T04:44:08;17.00;92.70
420;DHT22;42600;54.408;13.016;2023-06-22T04:46:34;17.10;92.70
420;DHT22;42600;54.408;13.016;2023-06-22T04:49:07;17.10;92.70
420;DHT22;42600;54.408;13.016;2023-06-22T04:51:37;17.10;92.70
420;DHT22;42600;54.408;13.016;2023-06-22T04:54:04;17.20;92.70
420;DHT22;42600;54.408;13.016;2023-06-22T04:56:31;17.30;92.70
420;DHT22;42600;54.408;13.016;2023-06-22T04:58:58;17.40;92.60
420;DHT22;42600;54.408;13.016;2023-06-22T05:01:24;17.50;92.70
420;DHT22;42600;54.408;13.016;2023-06-22T05:03:51;17.60;92.70
420;DHT22;42600;54.408;13.016;2023-06-22T05:06:21;17.60;92.70
420;DHT22;42600;54.408;13.016;2023-06-22T05:08:52;17.70;92.70
420;DHT22;42600;54.408;13.016;2023-06-22T05:11:22;17.80;92.70
420;DHT22;42600;54.408;13.016;2023-06-22T05:13:49;17.90;92.70
420;DHT22;42600;54.408;13.016;2023-06-22T05:16:15;18.00;92.70
420;DHT22;42600;54.408;13.016;2023-06-22T05:18:42;18.10;92.60
420;DHT22;42600;54.408;13.016;2023-06-22T05:21:09;18.20;91.70
420;DHT22;42600;54.408;13.016;2023-06-22T05:23:36;18.30;91.40
420;DHT22;42600;54.408;13.016;2023-06-22T05:26:03;18.40;91.00
420;DHT22;42600;54.408;13.016;2023-06-22T05:28:30;18.50;91.20
420;DHT22;42600;54.408;13.016;2023-06-22T05:30:56;18.60;91.70
420;DHT22;42600;54.408;13.016;2023-06-22T05:33:23;18.70;90.90
420;DHT22;42600;54.408;13.016;2023-06-22T05:35:49;18.90;91.60
420;DHT22;42600;54.408;13.016;2023-06-22T05:38:16;19.00;90.60
420;DHT22;42600;54.408;13.016;2023-06-22T05:40:43;19.10;90.20
420;DHT22;42600;54.408;13.016;2023-06-22T05:43:11;19.10;90.70
420;DHT22;42600;54.408;13.016;2023-06-22T05:45:37;19.20;90.90
420;DHT22;42600;54.408;13.016;2023-06-22T05:48:04;19.30;91.20
420;DHT22;42600;54.408;13.016;2023-06-22T05:50:31;19.40;90.70
420;DHT22;42600;54.408;13.016;2023-06-22T05:52:57;19.40;90.80
420;DHT22;42600;54.408;13.016;2023-06-22T05:55:24;19.40;91.00
420;DHT22;42600;54.408;13.016;2023-06-22T05:57:51;19.50;91.50
420;DHT22;42600;54.408;13.016;2023-06-22T06:00:20;19.60;91.20
420;DHT22;42600;54.408;13.016;2023-06-22T06:02:47;19.60;91.20
420;DHT22;42600;54.408;13.016;2023-06-22T06:05:14;19.70;90.90
420;DHT22;42600;54.408;13.016;2023-06-22T06:07:41;19.80;91.00
420;DHT22;42600;54.408;13.016;2023-06-22T06:10:08;19.80;91.40
420;DHT22;42600;54.408;13.016;2023-06-22T06:12:35;19.90;91.50
420;DHT22;42600;54.408;13.016;2023-06-22T06:15:02;20.00;91.50
420;DHT22;42600;54.408;13.016;2023-06-22T06:17:30;20.00;90.80
420;DHT22;42600;54.408;13.016;2023-06-22T06:19:58;20.10;90.20
420;DHT22;42600;54.408;13.016;2023-06-22T06:22:24;20.20;89.90
420;DHT22;42600;54.408;13.016;2023-06-22T06:24:51;20.20;89.60
420;DHT22;42600;54.408;13.016;2023-06-22T06:27:18;20.30;89.20
420;DHT22;42600;54.408;13.016;2023-06-22T06:29:44;20.30;89.00
420;DHT22;42600;54.408;13.016;2023-06-22T06:32:13;20.40;88.60
420;DHT22;42600;54.408;13.016;2023-06-22T06:34:41;20.40;88.50
420;DHT22;42600;54.408;13.016;2023-06-22T06:37:08;20.50;88.20
420;DHT22;42600;54.408;13.016;2023-06-22T06:39:35;20.60;88.30
420;DHT22;42600;54.408;13.016;2023-06-22T06:42:02;20.70;87.90
420;DHT22;42600;54.408;13.016;2023-06-22T06:44:28;20.80;88.10
420;DHT22;42600;54.408;13.016;2023-06-22T06:46:55;20.90;88.40
420;DHT22;42600;54.408;13.016;2023-06-22T06:49:21;21.00;87.80
420;DHT22;42600;54.408;13.016;2023-06-22T06:51:49;21.00;87.20
420;DHT22;42600;54.408;13.016;2023-06-22T06:54:16;21.00;86.80
420;DHT22;42600;54.408;13.016;2023-06-22T06:56:46;21.10;87.30
420;DHT22;42600;54.408;13.016;2023-06-22T06:59:13;21.10;86.90
420;DHT22;42600;54.408;13.016;2023-06-22T07:01:40;21.10;86.50
420;DHT22;42600;54.408;13.016;2023-06-22T07:04:07;21.20;85.80
420;DHT22;42600;54.408;13.016;2023-06-22T07:06:33;21.30;85.50
420;DHT22;42600;54.408;13.016;2023-06-22T07:09:01;21.40;85.60
420;DHT22;42600;54.408;13.016;2023-06-22T07:11:29;21.40;85.30
420;DHT22;42600;54.408;13.016;2023-06-22T07:13:55;21.50;85.80
420;DHT22;42600;54.408;13.016;2023-06-22T07:16:22;21.60;84.60
420;DHT22;42600;54.408;13.016;2023-06-22T07:18:50;21.70;84.20
420;DHT22;42600;54.408;13.016;2023-06-22T07:21:17;21.70;83.80
420;DHT22;42600;54.408;13.016;2023-06-22T07:23:43;21.70;83.50
420;DHT22;42600;54.408;13.016;2023-06-22T07:26:11;21.90;83.20
420;DHT22;42600;54.408;13.016;2023-06-22T07:28:38;22.00;82.20
420;DHT22;42600;54.408;13.016;2023-06-22T07:31:06;22.20;82.40
420;DHT22;42600;54.408;13.016;2023-06-22T07:33:32;22.30;82.40
420;DHT22;42600;54.408;13.016;2023-06-22T07:35:59;22.40;82.10
420;DHT22;42600;54.408;13.016;2023-06-22T07:38:26;22.50;81.70
420;DHT22;42600;54.408;13.016;2023-06-22T07:40:52;22.60;81.10
420;DHT22;42600;54.408;13.016;2023-06-22T07:43:20;22.60;81.80
420;DHT22;42600;54.408;13.016;2023-06-22T07:45:48;22.70;79.40
420;DHT22;42600;54.408;13.016;2023-06-22T07:48:17;22.80;79.90
420;DHT22;42600;54.408;13.016;2023-06-22T07:50:44;22.80;78.30
420;DHT22;42600;54.408;13.016;2023-06-22T07:53:10;22.90;79.50
420;DHT22;42600;54.408;13.016;2023-06-22T07:55:37;22.90;76.50
420;DHT22;42600;54.408;13.016;2023-06-22T07:58:03;23.00;76.40
420;DHT22;42600;54.408;13.016;2023-06-22T08:00:31;23.00;76.10
420;DHT22;42600;54.408;13.016;2023-06-22T08:02:59;23.00;77.60
420;DHT22;42600;54.408;13.016;2023-06-22T08:05:25;23.00;77.40
420;DHT22;42600;54.408;13.016;2023-06-22T08:07:53;23.00;75.40
420;DHT22;42600;54.408;13.016;2023-06-22T08:10:20;23.10;76.60
420;DHT22;42600;54.408;13.016;2023-06-22T08:12:47;23.20;76.80
420;DHT22;42600;54.408;13.016;2023-06-22T08:15:13;23.40;76.70
420;DHT22;42600;54.408;13.016;2023-06-22T08:17:41;23.50;76.10
420;DHT22;42600;54.408;13.016;2023-06-22T08:20:09;23.30;75.00
420;DHT22;42600;54.408;13.016;2023-06-22T08:22:37;23.50;76.90
420;DHT22;42600;54.408;13.016;2023-06-22T08:25:04;23.50;76.80
420;DHT22;42600;54.408;13.016;2023-06-22T08:27:31;23.40;75.60
420;DHT22;42600;54.408;13.016;2023-06-22T08:29:58;23.50;75.30
420;DHT22;42600;54.408;13.016;2023-06-22T08:32:25;23.60;75.70
420;DHT22;42600;54.408;13.016;2023-06-22T08:34:54;23.50;75.50
420;DHT22;42600;54.408;13.016;2023-06-22T08:37:21;23.70;76.70
420;DHT22;42600;54.408;13.016;2023-06-22T08:39:55;23.80;75.50
420;DHT22;42600;54.408;13.016;2023-06-22T08:42:22;23.80;74.60
420;DHT22;42600;54.408;13.016;2023-06-22T08:44:49;23.70;75.00
420;DHT22;42600;54.408;13.016;2023-06-22T08:47:16;23.80;75.30
420;DHT22;42600;54.408;13.016;2023-06-22T08:49:42;23.90;74.40
420;DHT22;42600;54.408;13.016;2023-06-22T08:52:10;24.20;75.20
420;DHT22;42600;54.408;13.016;2023-06-22T08:54:37;24.40;74.00
420;DHT22;42600;54.408;13.016;2023-06-22T08:57:04;24.50;73.40
420;DHT22;42600;54.408;13.016;2023-06-22T08:59:31;24.50;71.90
420;DHT22;42600;54.408;13.016;2023-06-22T09:01:57;24.30;71.90
420;DHT22;42600;54.408;13.016;2023-06-22T09:04:24;24.50;75.30
420;DHT22;42600;54.408;13.016;2023-06-22T09:06:51;24.60;72.50
420;DHT22;42600;54.408;13.016;2023-06-22T09:09:20;24.50;71.40
420;DHT22;42600;54.408;13.016;2023-06-22T09:11:47;24.50;73.90
420;DHT22;42600;54.408;13.016;2023-06-22T09:14:13;24.60;71.70
420;DHT22;42600;54.408;13.016;2023-06-22T09:16:40;24.80;75.40
420;DHT22;42600;54.408;13.016;2023-06-22T09:19:07;24.90;72.50
420;DHT22;42600;54.408;13.016;2023-06-22T09:21:33;25.10;71.80
420;DHT22;42600;54.408;13.016;2023-06-22T09:24:00;24.80;68.60
420;DHT22;42600;54.408;13.016;2023-06-22T09:26:27;24.50;68.70
420;DHT22;42600;54.408;13.016;2023-06-22T09:28:54;24.60;70.20
420;DHT22;42600;54.408;13.016;2023-06-22T09:31:21;25.00;74.70
420;DHT22;42600;54.408;13.016;2023-06-22T09:33:51;25.00;67.00
420;DHT22;42600;54.408;13.016;2023-06-22T09:36:18;24.80;68.30
420;DHT22;42600;54.408;13.016;2023-06-22T09:38:44;24.80;67.40
420;DHT22;42600;54.408;13.016;2023-06-22T09:41:11;25.10;70.70
420;DHT22;42600;54.408;13.016;2023-06-22T09:43:39;25.00;69.30
420;DHT22;42600;54.408;13.016;2023-06-22T09:46:05;25.30;69.20
420;DHT22;42600;54.408;13.016;2023-06-22T09:48:34;25.60;70.90
420;DHT22;42600;54.408;13.016;2023-06-22T09:51:01;25.70;70.00
420;DHT22;42600;54.408;13.016;2023-06-22T09:53:27;25.80;69.70
420;DHT22;42600;54.408;13.016;2023-06-22T09:55:54;25.70;67.30
420;DHT22;42600;54.408;13.016;2023-06-22T09:58:20;25.30;68.10
420;DHT22;42600;54.408;13.016;2023-06-22T10:00:48;25.00;67.90
420;DHT22;42600;54.408;13.016;2023-06-22T10:03:15;25.20;69.70
420;DHT22;42600;54.408;13.016;2023-06-22T10:05:41;25.60;70.80
420;DHT22;42600;54.408;13.016;2023-06-22T10:08:08;25.90;69.60
420;DHT22;42600;54.408;13.016;2023-06-22T10:10:35;25.50;69.60
420;DHT22;42600;54.408;13.016;2023-06-22T10:13:07;25.40;68.30
420;DHT22;42600;54.408;13.016;2023-06-22T10:15:35;25.20;68.70
420;DHT22;42600;54.408;13.016;2023-06-22T10:18:03;25.20;68.00
420;DHT22;42600;54.408;13.016;2023-06-22T10:20:30;25.50;67.60
420;DHT22;42600;54.408;13.016;2023-06-22T10:22:56;25.50;70.70
420;DHT22;42600;54.408;13.016;2023-06-22T10:25:23;25.70;70.70
420;DHT22;42600;54.408;13.016;2023-06-22T10:27:50;25.60;66.60
420;DHT22;42600;54.408;13.016;2023-06-22T10:30:17;25.40;66.70
420;DHT22;42600;54.408;13.016;2023-06-22T10:32:44;25.10;67.80
420;DHT22;42600;54.408;13.016;2023-06-22T10:35:11;25.00;68.70
420;DHT22;42600;54.408;13.016;2023-06-22T10:37:42;25.00;67.60
420;DHT22;42600;54.408;13.016;2023-06-22T10:40:09;25.10;67.70
420;DHT22;42600;54.408;13.016;2023-06-22T10:42:36;25.00;68.00
420;DHT22;42600;54.408;13.016;2023-06-22T10:45:02;25.20;69.70
420;DHT22;42600;54.408;13.016;2023-06-22T10:47:29;25.30;69.70
420;DHT22;42600;54.408;13.016;2023-06-22T10:49:56;25.40;68.00
420;DHT22;42600;54.408;13.016;2023-06-22T10:52:23;25.40;67.10
420;DHT22;42600;54.408;13.016;2023-06-22T10:54:50;25.00;67.30
420;DHT22;42600;54.408;13.016;2023-06-22T10:57:17;25.00;67.90
420;DHT22;42600;54.408;13.016;2023-06-22T10:59:44;25.30;68.30
420;DHT22;42600;54.408;13.016;2023-06-22T11:02:11;25.20;68.00
420;DHT22;42600;54.408;13.016;2023-06-22T11:04:38;25.40;65.90
420;DHT22;42600;54.408;13.016;2023-06-22T11:07:05;25.50;68.90
420;DHT22;42600;54.408;13.016;2023-06-22T11:09:33;25.50;68.60
420;DHT22;42600;54.408;13.016;2023-06-22T11:11:59;25.30;67.70
420;DHT22;42600;54.408;13.016;2023-06-22T11:14:26;25.90;68.40
420;DHT22;42600;54.408;13.016;2023-06-22T11:16:53;25.60;65.10
420;DHT22;42600;54.408;13.016;2023-06-22T11:19:19;25.80;67.30
420;DHT22;42600;54.408;13.016;2023-06-22T11:21:46;25.60;68.00
420;DHT22;42600;54.408;13.016;2023-06-22T11:24:12;25.50;65.10
420;DHT22;42600;54.408;13.016;2023-06-22T11:26:40;25.40;65.30
420;DHT22;42600;54.408;13.016;2023-06-22T11:29:07;25.30;64.40
420;DHT22;42600;54.408;13.016;2023-06-22T11:31:34;25.60;64.00
420;DHT22;42600;54.408;13.016;2023-06-22T11:34:00;25.60;61.10
420;DHT22;42600;54.408;13.016;2023-06-22T11:36:29;25.50;64.30
420;DHT22;42600;54.408;13.016;2023-06-22T11:38:58;25.30;62.00
420;DHT22;42600;54.408;13.016;2023-06-22T11:41:24;25.30;63.10
420;DHT22;42600;54.408;13.016;2023-06-22T11:43:52;25.80;63.80
420;DHT22;42600;54.408;13.016;2023-06-22T11:46:19;25.80;64.20
420;DHT22;42600;54.408;13.016;2023-06-22T11:48:46;26.10;62.70
420;DHT22;42600;54.408;13.016;2023-06-22T11:51:12;25.60;61.70
420;DHT22;42600;54.408;13.016;2023-06-22T11:53:39;25.60;61.40
420;DHT22;42600;54.408;13.016;2023-06-22T11:56:05;25.50;60.90
420;DHT22;42600;54.408;13.016;2023-06-22T11:58:32;25.40;60.70
420;DHT22;42600;54.408;13.016;2023-06-22T12:01:00;25.50;62.80
420;DHT22;42600;54.408;13.016;2023-06-22T12:03:26;26.00;63.90
420;DHT22;42600;54.408;13.016;2023-06-22T12:05:53;25.90;62.20
420;DHT22;42600;54.408;13.016;2023-06-22T12:08:19;26.00;62.40
420;DHT22;42600;54.408;13.016;2023-06-22T12:10:46;25.80;59.50
420;DHT22;42600;54.408;13.016;2023-06-22T12:13:12;25.60;59.00
420;DHT22;42600;54.408;13.016;2023-06-22T12:15:39;25.60;60.60
420;DHT22;42600;54.408;13.016;2023-06-22T12:18:07;25.90;62.30
420;DHT22;42600;54.408;13.016;2023-06-22T12:20:34;26.10;61.00
420;DHT22;42600;54.408;13.016;2023-06-22T12:23:02;25.80;61.60
420;DHT22;42600;54.408;13.016;2023-06-22T12:25:28;25.70;61.70
420;DHT22;42600;54.408;13.016;2023-06-22T12:27:55;25.80;64.00
420;DHT22;42600;54.408;13.016;2023-06-22T12:30:23;26.10;66.60
420;DHT22;42600;54.408;13.016;2023-06-22T12:32:49;26.60;64.60
420;DHT22;42600;54.408;13.016;2023-06-22T12:35:18;26.30;62.10
420;DHT22;42600;54.408;13.016;2023-06-22T12:37:44;26.20;63.10
420;DHT22;42600;54.408;13.016;2023-06-22T12:40:11;26.30;65.20
420;DHT22;42600;54.408;13.016;2023-06-22T12:42:38;26.40;60.80
420;DHT22;42600;54.408;13.016;2023-06-22T12:45:05;26.20;63.10
420;DHT22;42600;54.408;13.016;2023-06-22T12:47:32;25.90;60.80
420;DHT22;42600;54.408;13.016;2023-06-22T12:49:59;26.00;63.00
420;DHT22;42600;54.408;13.016;2023-06-22T12:52:27;26.20;60.90
420;DHT22;42600;54.408;13.016;2023-06-22T12:54:53;26.40;61.40
420;DHT22;42600;54.408;13.016;2023-06-22T12:57:20;26.70;62.10
420;DHT22;42600;54.408;13.016;2023-06-22T12:59:47;26.50;60.40
420;DHT22;42600;54.408;13.016;2023-06-22T13:02:13;26.20;61.20
420;DHT22;42600;54.408;13.016;2023-06-22T13:04:40;25.80;60.50
420;DHT22;42600;54.408;13.016;2023-06-22T13:07:08;26.00;60.80
420;DHT22;42600;54.408;13.016;2023-06-22T13:09:36;25.90;62.20
420;DHT22;42600;54.408;13.016;2023-06-22T13:12:03;26.10;64.10
420;DHT22;42600;54.408;13.016;2023-06-22T13:14:30;26.60;64.50
420;DHT22;42600;54.408;13.016;2023-06-22T13:16:56;26.40;60.30
420;DHT22;42600;54.408;13.016;2023-06-22T13:19:23;26.20;59.90
420;DHT22;42600;54.408;13.016;2023-06-22T13:21:50;26.40;60.40
420;DHT22;42600;54.408;13.016;2023-06-22T13:24:16;26.10;57.70
420;DHT22;42600;54.408;13.016;2023-06-22T13:26:44;26.10;60.10
420;DHT22;42600;54.408;13.016;2023-06-22T13:29:11;25.90;59.10
420;DHT22;42600;54.408;13.016;2023-06-22T13:31:37;25.60;60.20
420;DHT22;42600;54.408;13.016;2023-06-22T13:34:04;25.70;60.80
420;DHT22;42600;54.408;13.016;2023-06-22T13:36:30;26.10;63.00
420;DHT22;42600;54.408;13.016;2023-06-22T13:38:57;26.60;58.30
420;DHT22;42600;54.408;13.016;2023-06-22T13:41:24;26.30;60.60
420;DHT22;42600;54.408;13.016;2023-06-22T13:43:52;26.10;58.40
420;DHT22;42600;54.408;13.016;2023-06-22T13:46:19;26.30;58.20
420;DHT22;42600;54.408;13.016;2023-06-22T13:48:45;26.40;57.80
420;DHT22;42600;54.408;13.016;2023-06-22T13:51:12;26.20;58.60
420;DHT22;42600;54.408;13.016;2023-06-22T13:53:38;26.00;59.00
420;DHT22;42600;54.408;13.016;2023-06-22T13:56:05;26.00;57.70
420;DHT22;42600;54.408;13.016;2023-06-22T13:58:31;25.50;60.20
420;DHT22;42600;54.408;13.016;2023-06-22T14:00:59;25.60;60.20
420;DHT22;42600;54.408;13.016;2023-06-22T14:03:26;25.60;60.40
420;DHT22;42600;54.408;13.016;2023-06-22T14:05:52;25.30;59.50
420;DHT22;42600;54.408;13.016;2023-06-22T14:08:21;25.70;61.90
420;DHT22;42600;54.408;13.016;2023-06-22T14:10:49;25.30;58.10
420;DHT22;42600;54.408;13.016;2023-06-22T14:13:15;25.40;59.60
420;DHT22;42600;54.408;13.016;2023-06-22T14:15:42;25.60;59.20
420;DHT22;42600;54.408;13.016;2023-06-22T14:18:10;25.30;58.00
420;DHT22;42600;54.408;13.016;2023-06-22T14:20:36;25.20;58.10
420;DHT22;42600;54.408;13.016;2023-06-22T14:23:03;25.60;60.70
420;DHT22;42600;54.408;13.016;2023-06-22T14:25:29;26.00;60.60
420;DHT22;42600;54.408;13.016;2023-06-22T14:27:56;25.60;62.30
420;DHT22;42600;54.408;13.016;2023-06-22T14:30:22;25.90;63.00
420;DHT22;42600;54.408;13.016;2023-06-22T14:32:49;25.60;63.60
420;DHT22;42600;54.408;13.016;2023-06-22T14:35:17;25.80;64.00
420;DHT22;42600;54.408;13.016;2023-06-22T14:37:43;25.60;66.10
420;DHT22;42600;54.408;13.016;2023-06-22T14:40:11;25.40;63.50
420;DHT22;42600;54.408;13.016;2023-06-22T14:42:38;25.20;66.00
420;DHT22;42600;54.408;13.016;2023-06-22T14:45:05;25.20;62.50
420;DHT22;42600;54.408;13.016;2023-06-22T14:47:32;25.00;61.00
420;DHT22;42600;54.408;13.016;2023-06-22T14:49:59;25.30;62.60
420;DHT22;42600;54.408;13.016;2023-06-22T14:52:27;25.20;66.20
420;DHT22;42600;54.408;13.016;2023-06-22T14:54:55;25.30;67.60
420;DHT22;42600;54.408;13.016;2023-06-22T14:57:21;25.40;65.20
420;DHT22;42600;54.408;13.016;2023-06-22T14:59:48;25.10;63.90
420;DHT22;42600;54.408;13.016;2023-06-22T15:02:15;25.00;67.10
420;DHT22;42600;54.408;13.016;2023-06-22T15:04:42;25.00;62.70
420;DHT22;42600;54.408;13.016;2023-06-22T15:07:08;25.00;61.40
420;DHT22;42600;54.408;13.016;2023-06-22T15:09:36;24.90;62.00
420;DHT22;42600;54.408;13.016;2023-06-22T15:12:07;25.00;60.40
420;DHT22;42600;54.408;13.016;2023-06-22T15:14:37;24.90;60.90
420;DHT22;42600;54.408;13.016;2023-06-22T15:17:04;25.00;64.40
420;DHT22;42600;54.408;13.016;2023-06-22T15:19:31;25.30;61.60
420;DHT22;42600;54.408;13.016;2023-06-22T15:21:57;25.20;64.70
420;DHT22;42600;54.408;13.016;2023-06-22T15:24:24;25.10;63.90
420;DHT22;42600;54.408;13.016;2023-06-22T15:26:52;25.10;65.40
420;DHT22;42600;54.408;13.016;2023-06-22T15:29:19;24.90;63.90
420;DHT22;42600;54.408;13.016;2023-06-22T15:31:46;25.00;62.70
420;DHT22;42600;54.408;13.016;2023-06-22T15:34:13;24.90;63.60
420;DHT22;42600;54.408;13.016;2023-06-22T15:36:40;24.70;63.10
420;DHT22;42600;54.408;13.016;2023-06-22T15:39:06;24.60;64.30
420;DHT22;42600;54.408;13.016;2023-06-22T15:41:33;24.40;64.50
420;DHT22;42600;54.408;13.016;2023-06-22T15:44:01;24.40;64.30
420;DHT22;42600;54.408;13.016;2023-06-22T15:46:27;24.30;62.60